Time;durP1;ratioP1;P1;durP2;ratioP2;P2;SDS_P1;SDS_P2;PMS_P1;PMS_P2;Temp;Humidity;BMP_temperature;BMP_pressure;BME280_temperature;BME280_humidity;BME280_pressure;Samples;Min_cycle;Max_cycle;Signal;HPM_P1;HPM_P2
2022/03/16 00:00:20;;;;;;;12.23;10.60;;;;;;;19.91;38.91;102375.53;5032671;28;20053;-77
2022/03/16 00:02:48;;;;;;;11.07;9.93;;;;;;;19.91;38.85;102372.84;5031546;28;20409;-77
2022/03/16 00:05:17;;;;;;;10.60;9.52;;;;;;;19.91;38.68;102379.09;5031851;28;20412;-77
2022/03/16 00:07:44;;;;;;;11.25;10.02;;;;;;;19.92;38.76;102374.56;5039716;28;20052;-77
2022/03/16 00:10:12;;;;;;;9.82;8.82;;;;;;;19.92;38.70;102359.31;5052110;28;20049;-77
2022/03/16 00:12:41;;;;;;;12.38;9.35;;;;;;;19.92;38.49;102362.00;5052909;28;20064;-77
2022/03/16 00:15:09;;;;;;;13.30;10.27;;;;;;;19.92;38.75;102370.06;5052842;28;20045;-77
2022/03/16 00:17:36;;;;;;;10.85;9.75;;;;;;;19.93;38.56;102360.16;5047102;28;20060;-77
2022/03/16 00:20:04;;;;;;;11.75;9.65;;;;;;;19.92;38.58;102356.63;5031997;28;20058;-77
2022/03/16 00:22:32;;;;;;;10.75;9.45;;;;;;;19.93;38.55;102360.16;5032398;28;20033;-77
2022/03/16 00:24:59;;;;;;;10.20;9.20;;;;;;;19.93;38.63;102361.06;5032676;28;20053;-77
2022/03/16 00:27:26;;;;;;;11.57;9.57;;;;;;;19.93;38.39;102366.44;5045368;28;20045;-77
2022/03/16 00:29:54;;;;;;;11.60;9.77;;;;;;;19.94;38.53;102362.78;5052516;28;20048;-77
2022/03/16 00:32:21;;;;;;;11.10;9.85;;;;;;;19.94;38.50;102362.78;5051568;28;20067;-77
2022/03/16 00:34:48;;;;;;;10.30;9.20;;;;;;;19.95;38.32;102361.81;5050854;28;20049;-77
2022/03/16 00:37:16;;;;;;;14.55;10.27;;;;;;;19.95;38.46;102352.88;5051218;28;20064;-77
2022/03/16 00:39:43;;;;;;;12.38;9.95;;;;;;;19.95;38.46;102352.88;5050668;28;20401;-77
2022/03/16 00:42:11;;;;;;;10.10;9.02;;;;;;;19.94;38.59;102343.09;5051139;28;20049;-77
2022/03/16 00:44:38;;;;;;;11.27;9.40;;;;;;;19.94;38.48;102351.16;5052442;28;20500;-77
2022/03/16 00:47:07;;;;;;;13.65;9.88;;;;;;;19.94;38.50;102340.41;5055061;28;20052;-77
2022/03/16 00:49:34;;;;;;;11.90;9.98;;;;;;;19.94;38.45;102345.78;5038546;28;20515;-77
2022/03/16 00:52:04;;;;;;;10.77;8.88;;;;;;;19.94;38.49;102337.72;5054440;28;20049;-77
2022/03/16 00:54:31;;;;;;;9.90;8.65;;;;;;;19.93;38.38;102333.28;5054930;28;20056;-77
2022/03/16 00:57:01;;;;;;;11.35;9.95;;;;;;;19.93;38.36;102318.03;5055488;28;20052;-77
2022/03/16 00:59:29;;;;;;;12.20;9.73;;;;;;;19.94;38.50;102318.91;5055849;28;20061;-76
2022/03/16 01:01:57;;;;;;;11.13;9.93;;;;;;;19.92;38.50;102310.06;5054923;28;20040;-77
2022/03/16 01:04:25;;;;;;;9.70;8.70;;;;;;;19.93;38.51;102307.28;5055155;28;20053;-76
2022/03/16 01:06:54;;;;;;;10.13;9.20;;;;;;;19.94;38.30;102302.78;5055940;28;20056;-76
2022/03/16 01:09:21;;;;;;;10.07;9.05;;;;;;;19.94;38.53;102295.56;5042550;28;20044;-76
2022/03/16 01:11:49;;;;;;;10.52;9.00;;;;;;;19.93;38.47;102284.91;5038675;28;20049;-76
2022/03/16 01:14:17;;;;;;;10.23;9.23;;;;;;;19.94;38.33;102283.97;5054711;28;20041;-76
2022/03/16 01:16:45;;;;;;;9.50;8.60;;;;;;;19.94;38.29;102275.91;5054555;28;20057;-77
2022/03/16 01:19:14;;;;;;;10.52;9.43;;;;;;;19.95;38.45;102283.84;5054892;28;20057;-77
2022/03/16 01:21:43;;;;;;;11.05;8.77;;;;;;;19.94;38.45;102270.53;5054418;28;20049;-77
2022/03/16 01:24:11;;;;;;;10.38;9.27;;;;;;;19.94;38.34;102270.53;5054112;28;20534;-77
2022/03/16 01:26:38;;;;;;;11.07;9.82;;;;;;;19.94;38.44;102265.16;5055662;28;20049;-77
2022/03/16 01:29:06;;;;;;;10.38;9.38;;;;;;;19.96;38.53;102263.19;5054956;28;20060;-77
2022/03/16 01:31:36;;;;;;;9.15;8.25;;;;;;;19.95;38.47;102253.44;5054356;28;20378;-77
2022/03/16 01:34:04;;;;;;;10.48;9.27;;;;;;;19.95;38.39;102256.97;5053823;28;20503;-77
2022/03/16 01:36:32;;;;;;;10.18;9.18;;;;;;;19.94;38.29;102255.25;5055720;28;20044;-77
2022/03/16 01:38:59;;;;;;;12.60;9.25;;;;;;;19.95;38.38;102248.06;5054341;28;20064;-77
2022/03/16 01:41:27;;;;;;;10.55;8.57;;;;;;;19.95;38.46;102250.72;5053540;28;20060;-76
2022/03/16 01:43:56;;;;;;;9.55;8.60;;;;;;;19.95;38.34;102246.22;5055703;28;20052;-76
2022/03/16 01:46:24;;;;;;;9.73;8.82;;;;;;;19.95;38.24;102238.16;5053928;28;20041;-76
2022/03/16 01:48:51;;;;;;;10.07;9.07;;;;;;;19.97;38.34;102238.94;5053995;28;20052;-77
2022/03/16 01:51:20;;;;;;;9.95;9.05;;;;;;;19.96;38.32;102237.19;5055069;28;20041;-76
2022/03/16 01:53:49;;;;;;;10.32;9.32;;;;;;;19.96;38.26;102234.50;5054198;28;20037;-77
2022/03/16 01:56:17;;;;;;;9.50;8.60;;;;;;;19.96;38.37;102231.81;5053028;28;20057;-77
2022/03/16 01:58:45;;;;;;;9.95;8.85;;;;;;;19.97;38.46;102227.28;5053803;28;20072;-77
2022/03/16 02:01:15;;;;;;;11.02;8.35;;;;;;;19.95;38.28;102223.84;5053793;28;20061;-77
2022/03/16 02:03:43;;;;;;;9.93;8.75;;;;;;;19.96;38.44;102220.19;5055056;28;20056;-77
2022/03/16 02:06:11;;;;;;;9.35;8.32;;;;;;;19.95;38.56;102219.34;5054753;28;20045;-78
2022/03/16 02:08:40;;;;;;;9.68;8.68;;;;;;;19.95;38.55;102227.41;5054715;28;20049;-77
2022/03/16 02:11:08;;;;;;;8.80;8.00;;;;;;;19.94;38.54;102223.00;5053819;28;20041;-77
2022/03/16 02:13:36;;;;;;;9.50;8.60;;;;;;;19.95;38.65;102223.84;5054764;28;20480;-77
2022/03/16 02:16:04;;;;;;;9.55;8.65;;;;;;;19.95;38.54;102229.22;5054458;28;20047;-78
2022/03/16 02:18:31;;;;;;;9.65;8.75;;;;;;;19.95;38.56;102223.84;5041791;28;20065;-77
2022/03/16 02:21:02;;;;;;;9.70;8.57;;;;;;;19.94;38.47;102217.63;5034548;28;20058;-77
2022/03/16 02:23:30;;;;;;;10.18;9.25;;;;;;;19.96;38.47;102209.44;5033374;28;20045;-78
2022/03/16 02:25:57;;;;;;;8.93;8.02;;;;;;;19.96;38.59;102209.44;5034879;28;20041;-77
2022/03/16 02:28:25;;;;;;;9.65;8.63;;;;;;;19.97;38.58;102211.16;5049294;28;20045;-77
2022/03/16 02:30:53;;;;;;;9.65;8.65;;;;;;;19.97;38.59;102200.41;5054238;28;20057;-77
2022/03/16 02:33:20;;;;;;;9.27;8.38;;;;;;;19.97;38.67;102200.41;5054181;28;20499;-78
2022/03/16 02:35:47;;;;;;;11.48;8.40;;;;;;;19.97;38.68;102197.72;5053124;28;20048;-78
2022/03/16 02:38:16;;;;;;;9.80;8.88;;;;;;;19.97;38.60;102192.34;5054255;28;20547;-77
2022/03/16 02:40:43;;;;;;;10.02;8.55;;;;;;;19.98;38.51;102204.84;5054775;28;20041;-77
2022/03/16 02:43:11;;;;;;;9.82;8.93;;;;;;;19.97;38.47;102193.25;5053964;28;20041;-77
2022/03/16 02:45:38;;;;;;;10.30;9.30;;;;;;;19.98;38.38;102199.47;5053879;28;20044;-78
2022/03/16 02:48:06;;;;;;;9.50;8.60;;;;;;;19.99;38.57;102190.44;5054392;28;20045;-77
2022/03/16 02:50:33;;;;;;;10.30;8.45;;;;;;;19.99;38.54;102187.75;5053853;28;20044;-77
2022/03/16 02:53:01;;;;;;;9.75;8.73;;;;;;;20.00;38.58;102189.47;5054120;28;20107;-76
2022/03/16 02:55:45;;;;;;;9.93;8.93;;;;;;;19.99;38.58;102191.28;5053422;28;20116;-77
2022/03/16 02:58:13;;;;;;;9.60;8.73;;;;;;;19.99;38.51;102191.28;5036595;28;20064;-76
2022/03/16 03:00:42;;;;;;;9.77;8.88;;;;;;;20.01;38.45;102196.56;5053759;28;20511;-77
2022/03/16 03:03:10;;;;;;;9.20;8.10;;;;;;;20.00;38.35;102189.47;5053596;28;20511;-77
2022/03/16 03:05:37;;;;;;;10.05;9.02;;;;;;;20.00;38.71;102178.72;5054001;28;20049;-77
2022/03/16 03:08:05;;;;;;;10.02;9.07;;;;;;;19.99;38.62;102180.53;5053509;28;20056;-77
2022/03/16 03:10:32;;;;;;;8.57;7.78;;;;;;;19.99;38.71;102175.16;5047510;28;20048;-77
2022/03/16 03:13:00;;;;;;;10.73;8.35;;;;;;;19.99;38.51;102171.63;5040759;28;20059;-77
2022/03/16 03:15:28;;;;;;;10.43;9.32;;;;;;;19.98;38.47;102165.38;5052461;28;20049;-76
2022/03/16 03:17:55;;;;;;;10.30;9.30;;;;;;;19.98;38.67;102159.16;5053242;28;20048;-77
2022/03/16 03:20:22;;;;;;;9.38;8.48;;;;;;;19.98;38.65;102159.16;5053710;28;20052;-77
2022/03/16 03:22:50;;;;;;;9.82;8.82;;;;;;;19.98;38.82;102157.31;5053215;28;20037;-77
2022/03/16 03:25:17;;;;;;;9.50;8.60;;;;;;;19.98;38.62;102157.31;5053512;28;20056;-77
2022/03/16 03:27:44;;;;;;;8.13;7.35;;;;;;;19.98;38.65;102160.00;5053119;28;20056;-78
2022/03/16 03:30:12;;;;;;;10.13;9.00;;;;;;;19.99;38.55;102155.50;5052373;28;20493;-77
2022/03/16 03:32:39;;;;;;;8.10;7.38;;;;;;;19.98;38.73;102151.09;5053157;28;20048;-78
2022/03/16 03:35:07;;;;;;;9.70;8.70;;;;;;;19.99;38.70;102155.50;5053592;28;20049;-77
2022/03/16 03:37:36;;;;;;;9.88;8.50;;;;;;;19.98;38.68;102154.63;5053365;28;20060;-77
2022/03/16 03:40:05;;;;;;;10.43;8.32;;;;;;;20.00;38.73;102144.63;5051753;28;20051;-77
2022/03/16 03:42:33;;;;;;;9.60;8.70;;;;;;;20.01;38.79;102142.78;5052954;28;20037;-77
2022/03/16 03:45:01;;;;;;;9.23;8.20;;;;;;;20.02;38.60;102135.63;5053393;28;20072;-76
2022/03/16 03:47:28;;;;;;;11.23;8.70;;;;;;;20.02;38.65;102131.09;5053022;28;20049;-77
2022/03/16 03:49:56;;;;;;;10.02;7.95;;;;;;;20.02;38.62;102136.47;5053205;28;20055;-78
2022/03/16 03:52:23;;;;;;;8.98;8.02;;;;;;;20.04;38.61;102134.53;5052844;28;20049;-77
2022/03/16 03:54:50;;;;;;;8.48;7.60;;;;;;;20.04;38.71;102131.84;5053134;28;20052;-78
2022/03/16 03:57:18;;;;;;;9.23;8.27;;;;;;;20.03;38.90;102132.81;5052727;28;20052;-77
2022/03/16 03:59:45;;;;;;;8.95;8.05;;;;;;;20.04;38.73;102126.47;5052870;28;20053;-77
2022/03/16 04:02:12;;;;;;;9.70;8.70;;;;;;;20.05;38.64;102124.63;5052610;28;20048;-77
2022/03/16 04:04:41;;;;;;;9.27;8.38;;;;;;;20.05;38.61;102124.63;5051552;28;20056;-77
2022/03/16 04:07:08;;;;;;;9.52;8.23;;;;;;;20.05;38.81;102122.78;5052924;28;20488;-77
2022/03/16 04:09:36;;;;;;;8.93;8.05;;;;;;;20.06;38.79;102118.31;5052697;28;20041;-77
2022/03/16 04:12:03;;;;;;;10.77;9.23;;;;;;;20.03;38.68;102113.13;5050492;28;20053;-77
2022/03/16 04:14:31;;;;;;;8.70;7.88;;;;;;;20.04;38.79;102107.63;5052082;28;20048;-77
2022/03/16 04:16:59;;;;;;;8.80;7.90;;;;;;;20.04;38.75;102114.84;5052109;28;20407;-77
2022/03/16 04:19:27;;;;;;;9.05;7.93;;;;;;;20.02;38.55;102111.41;5032315;28;20045;-77
2022/03/16 04:21:54;;;;;;;9.95;8.20;;;;;;;20.02;38.60;102114.97;5032970;28;20042;-77
2022/03/16 04:24:22;;;;;;;9.13;8.23;;;;;;;20.04;38.58;102115.69;5032389;28;20049;-77
2022/03/16 04:26:49;;;;;;;9.02;7.95;;;;;;;20.01;38.82;102113.22;5032410;28;20182;-77
2022/03/16 04:29:16;;;;;;;8.30;7.47;;;;;;;20.00;38.66;102111.50;5048074;28;20397;-77
2022/03/16 04:31:43;;;;;;;8.52;7.65;;;;;;;20.00;38.61;102109.66;5052564;28;20041;-77
2022/03/16 04:34:11;;;;;;;8.88;7.97;;;;;;;20.00;38.67;102114.19;5052688;28;20489;-77
2022/03/16 04:36:38;;;;;;;8.82;7.80;;;;;;;20.00;38.77;102108.81;5052392;28;20045;-77
2022/03/16 04:39:06;;;;;;;8.65;7.78;;;;;;;20.00;38.81;102120.44;5052660;28;20045;-77
2022/03/16 04:41:33;;;;;;;8.18;7.38;;;;;;;20.02;38.58;102116.78;5052161;28;20052;-77
2022/03/16 04:44:01;;;;;;;8.77;7.88;;;;;;;19.99;38.60;102107.97;5052528;28;20397;-77
2022/03/16 04:46:28;;;;;;;9.40;8.40;;;;;;;20.01;38.64;102110.53;5052172;28;20041;-77
2022/03/16 04:48:56;;;;;;;9.27;8.38;;;;;;;20.00;38.62;102112.38;5052235;28;20485;-78
2022/03/16 04:51:23;;;;;;;9.13;8.20;;;;;;;20.01;38.70;102105.16;5052493;28;20045;-77
2022/03/16 04:53:50;;;;;;;8.48;7.22;;;;;;;20.02;38.73;102103.34;5052086;28;20484;-77
2022/03/16 04:56:18;;;;;;;9.48;8.05;;;;;;;20.02;38.69;102103.34;5050762;28;20048;-77
2022/03/16 04:58:45;;;;;;;10.88;7.88;;;;;;;20.00;38.65;102101.59;5051858;28;20053;-77
2022/03/16 05:01:13;;;;;;;8.45;7.53;;;;;;;20.02;38.58;102097.97;5051090;28;20412;-77
2022/03/16 05:03:40;;;;;;;10.80;8.50;;;;;;;20.02;38.71;102096.16;5051944;28;20062;-77
2022/03/16 05:06:08;;;;;;;10.30;8.65;;;;;;;20.03;38.81;102097.88;5050780;28;20075;-77
2022/03/16 05:08:37;;;;;;;8.48;7.63;;;;;;;20.03;38.89;102088.94;5052211;28;20045;-77
2022/03/16 05:11:05;;;;;;;8.48;7.68;;;;;;;20.04;38.81;102091.50;5052124;28;20049;-77
2022/03/16 05:13:32;;;;;;;8.30;7.50;;;;;;;20.04;38.79;102088.81;5038462;28;20045;-77
2022/03/16 05:16:00;;;;;;;9.02;8.13;;;;;;;20.04;38.78;102094.19;5032144;28;20037;-77
2022/03/16 05:18:27;;;;;;;8.68;7.78;;;;;;;20.04;38.83;102087.97;5032139;28;20049;-77
2022/03/16 05:20:55;;;;;;;8.27;7.47;;;;;;;20.02;38.74;102088.09;5032162;28;20045;-77
2022/03/16 05:23:22;;;;;;;9.40;8.00;;;;;;;20.04;38.83;102099.56;5032055;28;20053;-78
2022/03/16 05:25:50;;;;;;;9.15;7.88;;;;;;;20.05;38.93;102084.31;5032364;28;20038;-78
2022/03/16 05:28:17;;;;;;;9.13;7.72;;;;;;;20.04;38.82;102088.81;5032065;28;20064;-77
2022/03/16 05:30:44;;;;;;;8.30;7.45;;;;;;;20.04;38.77;102099.56;5032797;28;20064;-77
2022/03/16 05:33:12;;;;;;;8.23;7.40;;;;;;;20.05;38.79;102100.44;5034015;28;20056;-77
2022/03/16 05:35:42;;;;;;;9.90;8.15;;;;;;;20.05;38.86;102097.75;5034542;28;20397;-77
2022/03/16 05:38:12;;;;;;;9.02;8.07;;;;;;;20.05;38.76;102106.66;5035296;28;20076;-77
2022/03/16 05:40:41;;;;;;;10.45;8.07;;;;;;;20.04;38.96;102102.25;5035782;28;20045;-77
2022/03/16 05:43:09;;;;;;;10.02;7.55;;;;;;;20.04;38.70;102107.63;5033433;28;20049;-76
2022/03/16 05:45:36;;;;;;;8.13;7.32;;;;;;;20.02;38.78;102111.41;5035059;28;20037;-76
2022/03/16 05:48:04;;;;;;;8.75;7.85;;;;;;;19.99;38.74;102110.66;5033988;28;20053;-77
2022/03/16 05:50:32;;;;;;;9.77;8.77;;;;;;;19.99;38.77;102112.47;5035685;28;20537;-76
2022/03/16 05:53:01;;;;;;;7.93;7.13;;;;;;;19.99;38.58;102117.84;5033909;28;20041;-77
2022/03/16 05:55:29;;;;;;;9.77;8.07;;;;;;;19.98;38.63;102117.00;5035134;28;20060;-77
2022/03/16 05:57:56;;;;;;;8.20;7.38;;;;;;;19.98;38.66;102108.06;5034298;28;20038;-77
2022/03/16 06:00:23;;;;;;;9.43;7.40;;;;;;;19.97;38.67;102103.66;5034881;28;20049;-77
2022/03/16 06:02:51;;;;;;;8.73;7.93;;;;;;;19.97;38.65;102109.91;5035183;28;20045;-76
2022/03/16 06:05:24;;;;;;;8.25;7.20;;;;;;;19.97;38.66;102112.59;5035301;28;20041;-76
2022/03/16 06:07:51;;;;;;;9.13;8.23;;;;;;;19.98;38.65;102116.16;5032938;28;20060;-76
2022/03/16 06:10:19;;;;;;;9.05;8.18;;;;;;;19.98;38.43;102121.53;5034767;28;20052;-76
2022/03/16 06:13:00;;;;;;;9.10;7.75;;;;;;;19.98;38.68;102117.00;5035364;28;20469;-76
2022/03/16 06:15:36;;;;;;;8.75;7.85;;;;;;;19.98;38.60;102111.63;5033436;28;20056;-76
2022/03/16 06:18:04;;;;;;;9.90;8.57;;;;;;;19.98;38.42;102110.75;5034410;28;20068;-76
2022/03/16 06:20:34;;;;;;;9.45;8.18;;;;;;;19.98;38.55;102111.63;5033765;28;20045;-76
2022/03/16 06:23:04;;;;;;;9.07;8.05;;;;;;;19.99;38.50;102112.47;5034507;28;20049;-76
2022/03/16 06:25:36;;;;;;;10.25;9.20;;;;;;;19.99;38.53;102112.47;5033846;28;20374;-76
2022/03/16 06:28:04;;;;;;;9.43;8.15;;;;;;;19.99;38.60;102117.84;5034804;28;20038;-76
2022/03/16 06:30:31;;;;;;;10.18;8.85;;;;;;;20.00;38.44;102111.50;5034726;28;20053;-76
2022/03/16 06:32:58;;;;;;;9.38;8.35;;;;;;;19.99;38.31;102110.66;5034628;28;20489;-76
2022/03/16 06:35:26;;;;;;;9.73;8.43;;;;;;;19.99;38.60;102113.34;5034769;28;20397;-76
2022/03/16 06:37:53;;;;;;;10.82;8.90;;;;;;;20.00;38.36;102116.88;5034543;28;20052;-76
2022/03/16 06:40:21;;;;;;;9.85;8.57;;;;;;;19.99;38.50;102123.22;5034603;28;20037;-76
2022/03/16 06:42:57;;;;;;;9.02;8.07;;;;;;;19.99;38.33;102115.16;5033924;28;20068;-76
2022/03/16 06:45:27;;;;;;;9.77;8.80;;;;;;;19.98;38.75;102118.84;5034216;28;20061;-76
2022/03/16 06:47:56;;;;;;;9.02;7.85;;;;;;;19.97;38.68;102119.78;5034528;28;20045;-76
2022/03/16 06:50:24;;;;;;;13.57;8.77;;;;;;;19.97;38.74;102119.78;5033949;28;20046;-75
2022/03/16 06:52:53;;;;;;;10.48;8.77;;;;;;;19.96;38.65;102124.28;5034185;28;20045;-76
2022/03/16 06:55:21;;;;;;;8.52;7.57;;;;;;;19.96;38.60;102123.44;5034240;28;20048;-76
2022/03/16 06:57:48;;;;;;;8.68;7.78;;;;;;;19.95;38.77;102119.88;5033889;28;20061;-76
2022/03/16 07:00:16;;;;;;;8.70;7.80;;;;;;;19.95;38.70;102116.34;5034163;28;20057;-76
2022/03/16 07:02:58;;;;;;;9.50;7.85;;;;;;;19.95;38.69;102110.97;5034185;28;20369;-76
2022/03/16 07:05:31;;;;;;;9.37;7.50;;;;;;;19.94;39.00;102109.25;5033722;28;20369;-76
2022/03/16 07:08:00;;;;;;;9.05;7.70;;;;;;;19.94;38.69;102120.88;5033778;28;20084;-76
2022/03/16 07:10:29;;;;;;;9.93;8.13;;;;;;;19.94;38.80;102122.69;5033762;28;20511;-76
2022/03/16 07:12:56;;;;;;;12.18;8.27;;;;;;;19.95;38.97;102124.41;5033922;28;20052;-76
2022/03/16 07:15:24;;;;;;;11.73;8.48;;;;;;;19.95;38.97;102130.63;5036748;28;20041;-76
2022/03/16 07:17:52;;;;;;;9.40;8.00;;;;;;;19.94;38.90;102130.75;5033113;28;20037;-76
2022/03/16 07:20:20;;;;;;;10.13;8.40;;;;;;;19.95;39.01;102138.69;5033917;28;20056;-76
2022/03/16 07:23:01;;;;;;;9.43;7.88;;;;;;;19.95;38.98;102127.94;5033566;28;20408;-76
2022/03/16 07:25:33;;;;;;;9.75;8.30;;;;;;;19.95;38.89;102132.47;5033930;28;20041;-76
2022/03/16 07:28:01;;;;;;;9.93;8.02;;;;;;;19.94;38.98;102134.31;5033301;28;20511;-76
2022/03/16 07:30:28;;;;;;;9.48;8.00;;;;;;;19.95;38.91;102132.47;5033358;28;20476;-76
2022/03/16 07:32:55;;;;;;;9.80;7.30;;;;;;;19.95;38.95;102132.47;5031670;28;20049;-77
2022/03/16 07:35:26;;;;;;;9.57;7.40;;;;;;;19.95;38.97;102133.31;5033369;28;20476;-76
2022/03/16 07:37:58;;;;;;;10.05;8.00;;;;;;;19.94;38.91;102126.25;5033544;28;20053;-76
2022/03/16 07:40:25;;;;;;;10.00;7.80;;;;;;;19.94;38.97;102120.88;5031873;28;20054;-76
2022/03/16 07:42:53;;;;;;;9.80;7.97;;;;;;;19.95;39.08;102127.09;5033695;28;20052;-77
2022/03/16 07:45:20;;;;;;;9.70;7.97;;;;;;;19.95;39.06;102125.25;5031502;28;20404;-77
2022/03/16 07:47:50;;;;;;;8.32;7.18;;;;;;;19.95;39.27;102122.56;5033026;28;20049;-77
2022/03/16 07:50:17;;;;;;;11.93;7.78;;;;;;;19.97;38.97;102126.03;5033080;28;20052;-77
2022/03/16 07:52:45;;;;;;;9.52;7.88;;;;;;;19.98;39.15;102132.28;5033270;28;20045;-77
2022/03/16 07:55:14;;;;;;;10.30;7.47;;;;;;;19.99;39.16;102124.09;5032244;28;20045;-77
2022/03/16 07:57:43;;;;;;;11.65;7.63;;;;;;;20.01;39.35;102123.97;5033350;28;20053;-77
2022/03/16 08:00:13;;;;;;;10.93;6.90;;;;;;;20.01;39.43;102123.97;5032817;28;20057;-78
2022/03/16 08:02:41;;;;;;;9.05;7.32;;;;;;;20.00;39.31;102128.50;5034481;28;20065;-77
2022/03/16 08:05:08;;;;;;;8.75;6.78;;;;;;;19.99;39.36;102125.91;5053079;28;20045;-77
2022/03/16 08:07:38;;;;;;;10.43;7.88;;;;;;;19.96;39.91;102118.06;5053647;28;20056;-77
2022/03/16 08:10:06;;;;;;;11.30;8.30;;;;;;;19.95;39.90;102127.09;5054026;28;20398;-76
2022/03/16 08:12:33;;;;;;;11.05;7.80;;;;;;;19.94;39.89;102125.38;5053227;28;20048;-77
2022/03/16 08:15:01;;;;;;;9.60;7.55;;;;;;;19.92;40.27;102122.78;5053235;28;20072;-77
2022/03/16 08:17:28;;;;;;;12.00;8.50;;;;;;;19.93;40.20;102126.31;5052843;28;20048;-76
2022/03/16 08:19:57;;;;;;;11.00;7.93;;;;;;;19.91;40.38;102130.97;5053527;28;20041;-77
2022/03/16 08:22:29;;;;;;;10.30;7.75;;;;;;;19.91;40.37;102130.97;5052925;28;20052;-77
2022/03/16 08:24:59;;;;;;;11.55;7.72;;;;;;;19.91;40.77;102133.66;5052853;28;20051;-77
2022/03/16 08:27:29;;;;;;;10.45;8.02;;;;;;;19.92;40.84;102135.34;5052256;28;20386;-77
2022/03/16 08:29:56;;;;;;;10.57;8.40;;;;;;;19.92;40.84;102136.22;5051503;28;20487;-77
2022/03/16 08:32:24;;;;;;;9.18;7.00;;;;;;;19.92;41.00;102138.03;5051939;28;20052;-76
2022/03/16 08:34:53;;;;;;;9.38;8.40;;;;;;;19.93;40.97;102139.75;5052860;28;20044;-77
2022/03/16 08:37:20;;;;;;;10.52;7.75;;;;;;;19.94;41.05;102149.56;5053416;28;20060;-76
2022/03/16 08:39:48;;;;;;;9.65;7.22;;;;;;;19.94;41.15;102146.88;5051810;28;20045;-76
2022/03/16 08:42:16;;;;;;;8.55;6.60;;;;;;;19.95;41.23;102151.28;5052564;28;20040;-77
2022/03/16 08:44:45;;;;;;;9.75;6.90;;;;;;;19.94;41.18;102147.75;5053076;28;20481;-76
2022/03/16 08:47:20;;;;;;;9.52;7.38;;;;;;;19.93;41.26;102143.34;5053121;28;20472;-77
2022/03/16 08:49:55;;;;;;;9.45;7.60;;;;;;;19.94;41.18;102144.19;5053412;28;20072;-77
2022/03/16 08:52:23;;;;;;;9.13;6.90;;;;;;;19.94;41.64;102146.88;5053086;28;20049;-77
2022/03/16 08:54:51;;;;;;;12.90;7.57;;;;;;;19.93;41.27;102145.13;5051548;28;20049;-77
2022/03/16 08:57:22;;;;;;;8.60;6.82;;;;;;;19.93;41.33;102139.75;5052804;28;20476;-76
2022/03/16 08:59:50;;;;;;;9.55;6.93;;;;;;;19.94;41.32;102141.50;5052733;28;20052;-76
2022/03/16 09:02:17;;;;;;;9.80;6.53;;;;;;;19.94;41.30;102139.69;5052732;28;20041;-77
2022/03/16 09:04:45;;;;;;;7.72;6.40;;;;;;;19.93;41.53;102137.97;5053120;28;20503;-77
2022/03/16 09:07:13;;;;;;;7.97;6.53;;;;;;;19.95;41.16;102135.16;5056314;28;20049;-77
2022/03/16 09:09:40;;;;;;;10.55;7.47;;;;;;;19.94;41.66;102128.94;5055096;28;20056;-77
2022/03/16 09:12:11;;;;;;;9.23;6.70;;;;;;;19.94;41.29;102128.94;5056005;28;20047;-77
2022/03/16 09:14:39;;;;;;;8.70;6.18;;;;;;;19.96;41.33;102126.13;5056335;28;20385;-77
2022/03/16 09:17:10;;;;;;;9.13;5.90;;;;;;;19.95;40.92;102124.41;5054583;28;20045;-77
2022/03/16 09:19:38;;;;;;;10.80;6.97;;;;;;;19.94;41.12;102120.00;5056343;28;20055;-77
2022/03/16 09:22:06;;;;;;;9.30;7.45;;;;;;;19.95;41.12;102121.72;5054983;28;20067;-76
2022/03/16 09:24:33;;;;;;;13.38;8.07;;;;;;;19.95;40.76;102117.19;5055069;28;20053;-76
2022/03/16 09:27:02;;;;;;;8.10;7.28;;;;;;;19.96;40.71;102118.91;5056194;28;20041;-77
2022/03/16 09:29:29;;;;;;;12.82;7.93;;;;;;;19.95;40.56;102117.19;5055823;28;20048;-76
2022/03/16 09:32:07;;;;;;;9.77;7.97;;;;;;;19.95;40.66;102111.81;5055894;28;20056;-76
2022/03/16 09:34:36;;;;;;;12.85;8.65;;;;;;;19.95;40.40;102110.97;5056152;28;20072;-77
2022/03/16 09:37:05;;;;;;;10.73;7.95;;;;;;;19.95;40.52;102111.81;5056151;28;20041;-76
2022/03/16 09:39:33;;;;;;;11.13;8.73;;;;;;;19.97;39.97;102109.03;5054880;28;20472;-77
2022/03/16 09:42:00;;;;;;;10.75;9.32;;;;;;;19.97;40.22;102101.84;5037819;28;20063;-76
2022/03/16 09:44:30;;;;;;;12.68;9.95;;;;;;;19.99;39.89;102107.97;5054608;28;20049;-77
2022/03/16 09:46:59;;;;;;;13.60;9.75;;;;;;;20.00;39.90;102098.06;5055866;28;20041;-77
2022/03/16 09:49:27;;;;;;;11.90;9.88;;;;;;;20.00;39.70;102095.38;5054523;28;20388;-76
2022/03/16 09:51:56;;;;;;;10.93;9.48;;;;;;;20.02;39.77;102096.16;5055496;28;20044;-76
2022/03/16 09:54:24;;;;;;;11.02;8.32;;;;;;;20.04;39.95;102096.88;5055687;28;20401;-76
2022/03/16 09:56:53;;;;;;;12.65;10.95;;;;;;;20.06;39.58;102091.44;5055391;28;20037;-78
2022/03/16 09:59:21;;;;;;;12.65;9.10;;;;;;;20.07;39.70;102093.13;5055364;28;20053;-76
2022/03/16 10:01:57;;;;;;;11.48;9.32;;;;;;;20.07;39.45;102085.94;5055323;28;20044;-77
2022/03/16 10:04:30;;;;;;;12.23;8.82;;;;;;;20.08;39.36;102073.34;5055811;28;20044;-77
2022/03/16 10:07:00;;;;;;;12.63;9.73;;;;;;;20.07;39.65;102077.00;5054100;28;20049;-76
2022/03/16 10:15:19;;;;;;;8.93;7.65;;;;;;;20.13;39.76;102055.06;5055392;28;20499;-77
2022/03/16 10:17:49;;;;;;;13.05;7.55;;;;;;;20.12;39.58;102053.34;5054360;28;20047;-77
2022/03/16 10:20:28;;;;;;;8.85;6.57;;;;;;;20.09;39.72;102049.03;5054571;28;20041;-77
2022/03/16 10:23:03;;;;;;;8.38;6.47;;;;;;;20.09;39.61;102046.34;5055177;28;20059;-77
2022/03/16 10:25:33;;;;;;;7.07;6.00;;;;;;;20.08;39.78;102047.31;5055123;28;20049;-77
2022/03/16 10:28:13;;;;;;;7.68;6.45;;;;;;;20.08;39.79;102036.56;5054402;28;20049;-77
2022/03/16 10:30:57;;;;;;;9.02;5.53;;;;;;;20.08;39.58;102039.25;5055013;28;20060;-78
2022/03/16 10:33:30;;;;;;;8.70;5.82;;;;;;;20.08;39.75;102033.03;5054907;28;20045;-77
2022/03/16 10:36:03;;;;;;;7.90;5.85;;;;;;;20.08;39.99;102033.03;5054516;28;20052;-75
2022/03/16 10:38:53;;;;;;;;;;;;;;;20.06;40.37;102021.53;5055330;28;20048;-76
2022/03/16 10:47:12;;;;;;;8.93;5.65;;;;;;;20.01;44.17;102013.75;5054547;28;20048;-76
2022/03/16 10:49:39;;;;;;;8.40;5.82;;;;;;;19.98;44.22;102011.31;5054359;28;20048;-76
2022/03/16 10:52:17;;;;;;;7.32;5.68;;;;;;;19.98;44.92;102005.94;5054142;28;20056;-76
2022/03/16 10:54:48;;;;;;;6.45;5.35;;;;;;;19.97;45.01;102004.19;5054507;28;20052;-76
2022/03/16 10:57:16;;;;;;;6.47;5.35;;;;;;;19.96;45.69;101997.97;5053181;28;20053;-75
2022/03/16 10:59:48;;;;;;;7.90;6.05;;;;;;;19.94;45.92;101994.53;5054409;28;20057;-76
2022/03/16 11:02:18;;;;;;;6.75;6.05;;;;;;;19.94;46.04;101989.16;5054819;28;20048;-76
2022/03/16 11:04:50;;;;;;;7.47;5.03;;;;;;;19.94;46.47;101991.00;5054064;28;20053;-76
2022/03/16 11:07:19;;;;;;;9.40;6.20;;;;;;;19.93;46.73;102000.00;5054152;28;20052;-76
2022/03/16 11:09:48;;;;;;;8.70;5.68;;;;;;;19.94;46.83;102001.75;5053971;28;20044;-76
2022/03/16 11:15:10;;;;;;;6.07;5.47;;;;;;;19.92;47.47;101984.84;5054158;28;20041;-76
2022/03/16 11:17:39;;;;;;;5.57;5.07;;;;;;;19.91;47.35;101985.81;5053946;28;20048;-76
2022/03/16 11:20:10;;;;;;;6.57;5.03;;;;;;;19.91;47.53;101986.69;5053782;28;20484;-76
2022/03/16 11:26:23;;;;;;;5.20;4.57;;;;;;;19.90;47.73;101976.06;5053791;28;20053;-76
2022/03/16 11:29:00;;;;;;;5.75;4.63;;;;;;;19.90;47.92;101968.00;5052980;28;20041;-76
2022/03/16 11:31:32;;;;;;;6.40;5.68;;;;;;;19.89;48.00;101972.50;5053999;28;20052;-76
2022/03/16 11:34:08;;;;;;;6.35;5.32;;;;;;;19.88;48.29;101970.75;5053498;28;20045;-76
2022/03/16 11:36:40;;;;;;;5.78;4.97;;;;;;;19.89;48.21;101955.50;5053756;28;20053;-76
2022/03/16 11:39:42;;;;;;;5.25;4.70;;;;;;;19.88;48.34;101949.25;5053769;28;20044;-76
2022/03/16 11:42:14;;;;;;;6.00;5.38;;;;;;;19.89;48.43;101958.19;5052022;28;20045;-76
2022/03/16 11:44:42;;;;;;;5.43;4.85;;;;;;;19.88;48.56;101948.41;5053709;28;20041;-76
2022/03/16 11:47:09;;;;;;;5.43;4.93;;;;;;;19.88;48.92;101946.56;5053167;28;20045;-76